Time;durP1;ratioP1;P1;durP2;ratioP2;P2;SDS_P1;SDS_P2;PMS_P1;PMS_P2;Temp;Humidity;BMP_temperature;BMP_pressure;BME280_temperature;BME280_humidity;BME280_pressure;Samples;Min_cycle;Max_cycle;Signal;HPM_P1;HPM_P2
2023/03/25 00:01:36;;;;;;;1.47;1.47;;;19.70;62.40;;;;;;5059817;28;43602;-73
2023/03/25 00:04:04;;;;;;;1.60;1.60;;;19.60;62.60;;;;;;5054475;28;43935;-75
2023/03/25 00:06:33;;;;;;;1.60;1.60;;;19.40;63.00;;;;;;5056485;28;43961;-76
2023/03/25 00:09:02;;;;;;;1.60;1.60;;;19.30;63.60;;;;;;5053589;28;43470;-76
2023/03/25 00:11:30;;;;;;;1.50;1.50;;;19.20;64.10;;;;;;5061687;28;43446;-74
2023/03/25 00:13:59;;;;;;;1.50;1.50;;;19.10;64.20;;;;;;5054177;28;44037;-78
2023/03/25 00:16:27;;;;;;;1.40;1.40;;;19.00;64.40;;;;;;5055481;28;43520;-74
2023/03/25 00:18:58;;;;;;;1.80;1.70;;;18.90;64.50;;;;;;5056905;28;43550;-73
2023/03/25 00:21:26;;;;;;;1.40;1.40;;;18.80;64.70;;;;;;5057579;28;43562;-78
2023/03/25 00:23:55;;;;;;;1.60;1.60;;;18.70;65.30;;;;;;5054011;28;47269;-77
2023/03/25 00:26:22;;;;;;;1.67;1.60;;;18.70;65.40;;;;;;5052404;28;43461;-77
2023/03/25 00:28:52;;;;;;;1.30;1.30;;;18.60;65.40;;;;;;5057703;28;43516;-75
2023/03/25 00:31:22;;;;;;;1.40;1.40;;;18.60;65.40;;;;;;5050550;28;43538;-74
2023/03/25 00:33:50;;;;;;;1.50;1.50;;;18.50;65.40;;;;;;5057679;28;43756;-77
2023/03/25 00:36:18;;;;;;;1.40;1.40;;;18.50;65.90;;;;;;5049653;28;44417;-76
2023/03/25 00:38:48;;;;;;;1.53;1.43;;;18.50;66.00;;;;;;5055811;28;43469;-78
2023/03/25 00:41:21;;;;;;;1.50;1.50;;;18.60;65.90;;;;;;5052200;28;43635;-74
2023/03/25 00:43:51;;;;;;;1.27;1.27;;;18.70;65.50;;;;;;5050146;28;43851;-76
2023/03/25 00:46:21;;;;;;;1.40;1.37;;;18.70;65.30;;;;;;5057323;28;44057;-76
2023/03/25 00:48:51;;;;;;;1.50;1.50;;;18.70;65.20;;;;;;5048210;28;43378;-75
2023/03/25 00:51:20;;;;;;;1.50;1.50;;;18.70;65.40;;;;;;5054411;28;43523;-76
2023/03/25 00:53:48;;;;;;;1.13;1.13;;;18.60;65.50;;;;;;5077636;27;45980;-75
2023/03/25 00:56:16;;;;;;;1.43;1.43;;;18.60;65.50;;;;;;5060154;28;43531;-74
2023/03/25 00:58:44;;;;;;;1.33;1.33;;;18.60;65.50;;;;;;5068910;27;43659;-75
2023/03/25 01:01:12;;;;;;;1.20;1.20;;;18.50;65.50;;;;;;5058557;28;43982;-76
2023/03/25 01:03:43;;;;;;;1.27;1.27;;;18.50;65.60;;;;;;5059038;28;43947;-76
2023/03/25 01:06:16;;;;;;;1.33;1.33;;;18.40;66.00;;;;;;5051758;28;44709;-75
2023/03/25 01:08:46;;;;;;;1.17;1.17;;;18.50;66.10;;;;;;5059864;28;44002;-77
2023/03/25 01:11:18;;;;;;;1.33;1.33;;;18.40;65.90;;;;;;5054212;28;43592;-78
2023/03/25 01:13:48;;;;;;;1.00;1.00;;;18.40;66.00;;;;;;5051898;28;43774;-77
2023/03/25 01:16:16;;;;;;;1.50;1.50;;;18.40;66.00;;;;;;5050402;28;44580;-78
2023/03/25 01:18:45;;;;;;;1.30;1.30;;;18.40;66.20;;;;;;5054752;28;43412;-76
2023/03/25 01:21:14;;;;;;;1.17;1.17;;;18.40;66.40;;;;;;5059143;28;44112;-74
2023/03/25 01:23:44;;;;;;;1.30;1.20;;;18.40;66.20;;;;;;5072353;27;46355;-73
2023/03/25 01:26:12;;;;;;;1.30;1.30;;;18.50;66.00;;;;;;5057212;28;43435;-74
2023/03/25 01:28:40;;;;;;;1.23;1.23;;;18.50;65.80;;;;;;5057111;28;43835;-76
2023/03/25 01:31:10;;;;;;;1.00;1.00;;;18.50;65.80;;;;;;5056084;28;43498;-76
2023/03/25 01:33:38;;;;;;;1.20;1.20;;;18.50;66.10;;;;;;5057821;28;43872;-74
2023/03/25 01:36:11;;;;;;;1.40;1.40;;;18.50;66.00;;;;;;5055161;28;44667;-77
2023/03/25 01:38:40;;;;;;;1.20;1.20;;;18.50;65.90;;;;;;5057027;28;43610;-76
2023/03/25 01:41:09;;;;;;;1.03;1.03;;;18.40;65.90;;;;;;5068183;28;43477;-76
2023/03/25 01:43:37;;;;;;;1.20;1.20;;;18.40;65.90;;;;;;5052549;28;46119;-77
2023/03/25 01:46:06;;;;;;;1.30;1.30;;;18.40;66.30;;;;;;5065828;28;43340;-76
2023/03/25 01:48:35;;;;;;;1.17;1.17;;;18.40;66.30;;;;;;5066027;28;43444;-77
2023/03/25 01:51:05;;;;;;;1.00;1.00;;;18.40;66.20;;;;;;5060252;28;43563;-76
2023/03/25 01:53:35;;;;;;;1.17;1.17;;;18.40;66.20;;;;;;5054463;28;43755;-77
2023/03/25 01:56:04;;;;;;;1.10;1.10;;;18.30;66.10;;;;;;5054779;28;43494;-77
2023/03/25 01:58:33;;;;;;;1.30;1.30;;;18.30;66.30;;;;;;5061665;28;43359;-74
2023/03/25 02:01:02;;;;;;;1.20;1.20;;;18.30;66.60;;;;;;5065216;28;43543;-69
2023/03/25 02:03:35;;;;;;;1.10;1.10;;;18.40;66.20;;;;;;5068844;28;45567;-69
2023/03/25 02:06:08;;;;;;;1.10;1.10;;;18.50;66.00;;;;;;5062825;28;44691;-67
2023/03/25 02:08:40;;;;;;;1.00;1.00;;;18.50;65.70;;;;;;5072232;28;43549;-73
2023/03/25 02:11:08;;;;;;;0.97;0.97;;;18.50;65.50;;;;;;5067244;28;43818;-71
2023/03/25 02:13:38;;;;;;;1.20;1.20;;;18.50;65.80;;;;;;5074006;28;43812;-69
2023/03/25 02:16:14;;;;;;;1.10;1.10;;;18.50;65.80;;;;;;5066932;28;43471;-68
2023/03/25 02:18:46;;;;;;;1.10;1.10;;;18.50;65.80;;;;;;5064134;28;43415;-67
2023/03/25 02:21:46;;;;;;;1.07;1.07;;;18.50;65.80;;;;;;5068112;28;43550;-70
2023/03/25 02:24:42;;;;;;;1.10;1.10;;;18.40;65.80;;;;;;5074360;28;44122;-68
2023/03/25 02:27:25;;;;;;;1.00;1.00;;;18.40;65.90;;;;;;5068483;28;43498;-69
2023/03/25 02:30:25;;;;;;;0.90;0.90;;;18.40;66.30;;;;;;5063716;28;43842;-68
2023/03/25 02:33:29;;;;;;;0.90;0.90;;;18.40;66.10;;;;;;5064985;28;43520;-70
2023/03/25 02:36:11;;;;;;;1.10;1.10;;;18.40;66.10;;;;;;5064689;28;46053;-71
2023/03/25 02:38:42;;;;;;;1.00;1.00;;;18.40;66.10;;;;;;5070756;28;44578;-70
2023/03/25 02:41:13;;;;;;;1.00;1.00;;;18.30;66.20;;;;;;5069958;28;43404;-69
2023/03/25 02:43:47;;;;;;;1.00;1.00;;;18.30;66.30;;;;;;5064936;28;43462;-69
2023/03/25 02:46:16;;;;;;;0.90;0.90;;;18.30;66.10;;;;;;5072697;28;43885;-72
2023/03/25 02:48:49;;;;;;;0.90;0.90;;;18.40;66.10;;;;;;5069428;28;43916;-68
2023/03/25 02:51:20;;;;;;;1.10;1.10;;;18.30;66.10;;;;;;5067580;28;44615;-70
2023/03/25 02:53:50;;;;;;;1.20;1.20;;;18.30;66.20;;;;;;5070953;28;44182;-68
2023/03/25 02:56:21;;;;;;;0.87;0.87;;;18.30;66.60;;;;;;5067625;28;43598;-69
2023/03/25 02:58:49;;;;;;;0.90;0.90;;;18.30;66.40;;;;;;5070926;28;44417;-68
2023/03/25 03:01:17;;;;;;;0.90;0.90;;;18.40;66.10;;;;;;5063482;28;43739;-69
2023/03/25 03:03:45;;;;;;;1.00;1.00;;;18.50;65.90;;;;;;5068073;28;43542;-70
2023/03/25 03:06:15;;;;;;;0.90;0.90;;;18.50;65.60;;;;;;5064041;28;45727;-74
2023/03/25 03:08:56;;;;;;;0.90;0.90;;;18.60;65.60;;;;;;5067964;28;43965;-71
2023/03/25 03:11:26;;;;;;;0.90;0.90;;;18.50;65.80;;;;;;5067137;28;43563;-68
2023/03/25 03:14:05;;;;;;;0.90;0.90;;;18.50;65.80;;;;;;5070249;28;43645;-71
2023/03/25 03:16:36;;;;;;;1.00;1.00;;;18.50;65.70;;;;;;5059299;28;43887;-69
2023/03/25 03:19:10;;;;;;;1.00;1.00;;;18.40;65.70;;;;;;5067971;28;44118;-69
2023/03/25 03:21:40;;;;;;;1.00;1.00;;;18.40;65.80;;;;;;5065876;28;43472;-69
2023/03/25 03:24:12;;;;;;;0.83;0.83;;;18.30;65.90;;;;;;5067893;28;43526;-69
2023/03/25 03:26:42;;;;;;;1.00;1.00;;;18.30;66.20;;;;;;5068953;28;43850;-69
2023/03/25 03:29:11;;;;;;;0.87;0.87;;;18.40;66.20;;;;;;5073718;28;43437;-67
2023/03/25 03:31:41;;;;;;;0.93;0.93;;;18.30;66.00;;;;;;5067936;28;43917;-71
2023/03/25 03:34:33;;;;;;;0.80;0.80;;;18.30;66.00;;;;;;5065695;28;44245;-68
2023/03/25 03:37:01;;;;;;;1.10;1.10;;;18.30;66.10;;;;;;5067349;28;45879;-70
2023/03/25 03:39:31;;;;;;;1.00;1.00;;;18.30;66.30;;;;;;5072058;28;44784;-69
2023/03/25 03:42:01;;;;;;;1.00;1.00;;;18.30;66.40;;;;;;5068162;28;43980;-71
2023/03/25 03:44:30;;;;;;;0.90;0.90;;;18.40;66.10;;;;;;5071260;28;43649;-69
2023/03/25 03:46:59;;;;;;;1.00;1.00;;;18.40;65.80;;;;;;5067238;28;43870;-68
2023/03/25 03:49:28;;;;;;;0.90;0.90;;;18.50;65.80;;;;;;5067440;28;43465;-67
2023/03/25 03:51:58;;;;;;;1.00;1.00;;;18.40;65.70;;;;;;5068539;28;43457;-69
2023/03/25 03:54:27;;;;;;;0.83;0.83;;;18.40;66.00;;;;;;5059748;28;43488;-67
2023/03/25 03:57:00;;;;;;;0.80;0.80;;;18.40;65.90;;;;;;5068970;28;45035;-68
2023/03/25 03:59:33;;;;;;;0.80;0.80;;;18.40;65.90;;;;;;5060722;28;44863;-69
2023/03/25 04:02:03;;;;;;;1.20;1.20;;;18.40;65.90;;;;;;5061119;28;43434;-68
2023/03/25 04:04:33;;;;;;;0.90;0.90;;;18.40;66.00;;;;;;5070372;28;44325;-69
2023/03/25 04:07:03;;;;;;;0.90;0.90;;;18.30;66.10;;;;;;5072297;28;43836;-68
2023/03/25 04:09:37;;;;;;;0.83;0.83;;;18.30;66.30;;;;;;5066492;28;43921;-69
2023/03/25 04:12:10;;;;;;;0.90;0.90;;;18.30;66.20;;;;;;5061471;28;43458;-69
2023/03/25 04:14:38;;;;;;;0.73;0.73;;;18.30;66.10;;;;;;5068034;28;44063;-68
2023/03/25 04:17:06;;;;;;;0.80;0.80;;;18.30;66.10;;;;;;5065033;28;43598;-69
2023/03/25 04:19:34;;;;;;;1.00;1.00;;;18.30;66.20;;;;;;5063324;28;44963;-69
2023/03/25 04:22:02;;;;;;;1.00;1.00;;;18.30;66.40;;;;;;5067362;28;43433;-68
2023/03/25 04:24:31;;;;;;;1.10;1.10;;;18.20;66.40;;;;;;5070835;28;43476;-69
2023/03/25 04:27:03;;;;;;;0.80;0.80;;;18.40;66.40;;;;;;5069914;28;44045;-69
2023/03/25 04:29:32;;;;;;;1.10;1.10;;;18.40;65.90;;;;;;5054880;28;44966;-70
2023/03/25 04:32:01;;;;;;;0.80;0.80;;;18.50;65.60;;;;;;5067747;28;43482;-71
2023/03/25 04:34:28;;;;;;;1.00;1.00;;;18.50;65.50;;;;;;5067598;28;43949;-69
2023/03/25 04:36:57;;;;;;;0.70;0.70;;;18.50;65.70;;;;;;5069930;28;43866;-69
2023/03/25 04:39:28;;;;;;;0.70;0.70;;;18.50;65.70;;;;;;5066220;28;43513;-68
2023/03/25 04:41:56;;;;;;;0.80;0.80;;;18.50;65.60;;;;;;5072161;28;43505;-67
2023/03/25 04:44:24;;;;;;;0.90;0.90;;;18.40;65.60;;;;;;5069523;28;43458;-67
2023/03/25 04:46:54;;;;;;;0.70;0.70;;;18.40;65.70;;;;;;5069178;28;45960;-70
2023/03/25 04:49:23;;;;;;;0.70;0.70;;;18.30;65.70;;;;;;5068492;28;43421;-71
2023/03/25 04:51:54;;;;;;;0.87;0.87;;;18.30;66.20;;;;;;5067585;28;43480;-70
2023/03/25 04:54:22;;;;;;;0.87;0.87;;;18.30;66.10;;;;;;5071917;28;43593;-68
2023/03/25 04:56:50;;;;;;;0.80;0.80;;;18.30;65.90;;;;;;5063961;28;43910;-69
2023/03/25 04:59:19;;;;;;;0.70;0.70;;;18.30;65.90;;;;;;5071283;28;43446;-70
2023/03/25 05:01:47;;;;;;;0.73;0.73;;;18.30;66.00;;;;;;5063610;28;43533;-68
2023/03/25 05:04:17;;;;;;;0.80;0.80;;;18.20;66.10;;;;;;5068893;28;43391;-69
2023/03/25 05:06:46;;;;;;;0.77;0.77;;;18.30;66.60;;;;;;5068236;28;45987;-70
2023/03/25 05:09:15;;;;;;;0.90;0.90;;;18.30;66.20;;;;;;5062176;28;43480;-67
2023/03/25 05:11:46;;;;;;;0.90;0.90;;;18.30;66.00;;;;;;5064561;28;43545;-70
2023/03/25 05:14:15;;;;;;;0.80;0.80;;;18.30;66.00;;;;;;5069302;28;43541;-67
2023/03/25 05:16:43;;;;;;;0.83;0.83;;;18.30;66.20;;;;;;5065095;28;43939;-71
2023/03/25 05:19:11;;;;;;;0.90;0.90;;;18.20;66.20;;;;;;5067855;28;43807;-69
2023/03/25 05:21:41;;;;;;;0.80;0.80;;;18.30;66.60;;;;;;5067982;28;43388;-68
2023/03/25 05:24:10;;;;;;;0.73;0.73;;;18.30;66.20;;;;;;5068561;28;43430;-69
2023/03/25 05:26:38;;;;;;;1.00;1.00;;;18.50;65.80;;;;;;5068029;28;45729;-70
2023/03/25 05:29:08;;;;;;;0.80;0.80;;;18.50;65.40;;;;;;5075012;27;43457;-69
2023/03/25 05:31:36;;;;;;;0.60;0.60;;;18.50;65.20;;;;;;5070139;28;43475;-69
2023/03/25 05:34:05;;;;;;;0.70;0.70;;;18.50;65.50;;;;;;5074944;28;43462;-68
2023/03/25 05:36:35;;;;;;;0.70;0.70;;;18.50;65.70;;;;;;5061790;28;43855;-69
2023/03/25 05:39:04;;;;;;;0.87;0.87;;;18.50;65.60;;;;;;5072830;28;45046;-67
2023/03/25 05:41:37;;;;;;;0.97;0.97;;;18.50;66.20;;;;;;5067730;28;43509;-68
2023/03/25 05:44:06;;;;;;;0.73;0.73;;;18.40;65.50;;;;;;5073552;28;43523;-68
2023/03/25 05:46:34;;;;;;;0.83;0.83;;;18.40;65.80;;;;;;5071095;28;43865;-68
2023/03/25 05:49:02;;;;;;;0.70;0.70;;;18.30;66.10;;;;;;5067596;28;43427;-71
2023/03/25 05:51:32;;;;;;;0.90;0.90;;;18.30;66.10;;;;;;5062880;28;43590;-68
2023/03/25 05:54:00;;;;;;;0.60;0.60;;;18.30;65.90;;;;;;5067619;28;43480;-70
2023/03/25 05:56:30;;;;;;;0.73;0.73;;;18.30;65.90;;;;;;5074294;28;43696;-71
2023/03/25 05:58:58;;;;;;;0.77;0.77;;;18.30;66.10;;;;;;5075783;28;43465;-68
2023/03/25 06:01:26;;;;;;;0.87;0.87;;;18.20;66.10;;;;;;5067345;28;43415;-67
2023/03/25 06:04:00;;;;;;;0.70;0.70;;;18.20;66.40;;;;;;5069086;28;43494;-69
2023/03/25 06:06:30;;;;;;;0.90;0.90;;;18.30;66.20;;;;;;5068500;28;45692;-71
2023/03/25 06:08:59;;;;;;;0.90;0.90;;;18.30;66.10;;;;;;5070207;28;44753;-69
2023/03/25 06:11:27;;;;;;;0.80;0.80;;;18.20;66.10;;;;;;5063486;28;43446;-70
2023/03/25 06:13:56;;;;;;;1.03;1.03;;;18.20;66.30;;;;;;5065814;28;43477;-67
2023/03/25 06:16:29;;;;;;;0.83;0.83;;;18.20;66.40;;;;;;5069413;28;44169;-68
2023/03/25 06:18:58;;;;;;;0.83;0.83;;;18.20;66.50;;;;;;5071520;28;43467;-68
2023/03/25 06:21:27;;;;;;;0.80;0.80;;;18.30;66.20;;;;;;5067126;28;43471;-68
2023/03/25 06:23:55;;;;;;;0.90;0.90;;;18.40;65.80;;;;;;5064235;28;43960;-71
2023/03/25 06:26:23;;;;;;;0.80;0.80;;;18.50;65.60;;;;;;5064237;28;43883;-69
2023/03/25 06:28:51;;;;;;;0.70;0.70;;;18.50;65.30;;;;;;5062821;28;43858;-69
2023/03/25 06:31:25;;;;;;;0.90;0.90;;;18.40;65.50;;;;;;5073925;28;43477;-69
2023/03/25 06:33:53;;;;;;;0.60;0.60;;;18.50;65.80;;;;;;5063487;28;43455;-68
2023/03/25 06:36:21;;;;;;;0.70;0.70;;;18.50;65.60;;;;;;5063886;28;46352;-71
2023/03/25 06:38:50;;;;;;;0.70;0.70;;;18.40;65.40;;;;;;5068608;28;43932;-68
2023/03/25 06:41:23;;;;;;;0.60;0.60;;;18.40;65.60;;;;;;5065685;28;43886;-69
2023/03/25 06:44:10;;;;;;;1.07;1.07;;;18.30;65.70;;;;;;5067261;28;43922;-68
2023/03/25 06:47:01;;;;;;;0.80;0.80;;;18.30;66.20;;;;;;5060403;28;43580;-68
2023/03/25 06:49:32;;;;;;;1.07;1.07;;;18.30;66.00;;;;;;5064469;28;43479;-68
2023/03/25 06:52:04;;;;;;;0.90;0.90;;;18.30;65.90;;;;;;5068344;28;43519;-72
2023/03/25 06:54:33;;;;;;;0.90;0.90;;;18.30;65.90;;;;;;5066402;28;43457;-69
2023/03/25 06:57:01;;;;;;;0.90;0.90;;;18.30;66.10;;;;;;5063448;28;43912;-68
2023/03/25 06:59:29;;;;;;;1.00;1.00;;;18.20;66.10;;;;;;5064681;28;43671;-69
2023/03/25 07:01:57;;;;;;;0.70;0.70;;;18.20;66.30;;;;;;5063623;28;43537;-69
2023/03/25 07:04:26;;;;;;;0.70;0.70;;;18.30;66.20;;;;;;5066580;28;43498;-69
2023/03/25 07:06:54;;;;;;;0.80;0.80;;;18.30;66.00;;;;;;5067453;28;43887;-71
2023/03/25 07:09:24;;;;;;;0.90;0.90;;;18.30;66.10;;;;;;5061196;28;43489;-70
2023/03/25 07:11:52;;;;;;;0.97;0.97;;;18.30;66.20;;;;;;5067491;28;43515;-69
2023/03/25 07:14:20;;;;;;;0.97;0.97;;;18.20;66.30;;;;;;5067836;28;43476;-67
2023/03/25 07:16:49;;;;;;;0.80;0.80;;;18.20;66.40;;;;;;5063639;28;43657;-69
2023/03/25 07:19:17;;;;;;;0.80;0.80;;;18.40;66.40;;;;;;5064026;28;43434;-68
2023/03/25 07:21:46;;;;;;;1.00;1.00;;;18.50;65.60;;;;;;5068102;28;43541;-72
2023/03/25 07:24:14;;;;;;;0.90;0.90;;;18.50;65.30;;;;;;5058530;28;43473;-70
2023/03/25 07:26:42;;;;;;;1.20;1.00;;;18.50;65.20;;;;;;5071761;28;43735;-68
2023/03/25 07:29:12;;;;;;;0.90;0.90;;;18.50;65.40;;;;;;5067092;28;43423;-69
2023/03/25 07:31:40;;;;;;;0.80;0.80;;;18.50;65.50;;;;;;5068951;28;43433;-68
2023/03/25 07:34:08;;;;;;;0.80;0.80;;;18.50;66.20;;;;;;5071451;28;43895;-69
2023/03/25 07:36:36;;;;;;;0.80;0.80;;;18.40;65.50;;;;;;5070350;28;43940;-69
2023/03/25 07:39:06;;;;;;;0.87;0.87;;;18.40;65.60;;;;;;5067469;28;43482;-68
2023/03/25 07:41:34;;;;;;;0.80;0.80;;;18.30;65.70;;;;;;5068777;28;43716;-68
2023/03/25 07:44:26;;;;;;;0.70;0.70;;;18.30;65.90;;;;;;5063751;28;43537;-67
2023/03/25 07:46:54;;;;;;;1.10;1.10;;;18.30;66.10;;;;;;5071141;28;43945;-70
2023/03/25 07:49:22;;;;;;;0.80;0.80;;;18.30;65.90;;;;;;5061495;28;44133;-68
2023/03/25 07:51:50;;;;;;;0.80;0.80;;;18.30;66.00;;;;;;5067765;28;43486;-69
2023/03/25 07:54:21;;;;;;;0.70;0.70;;;18.20;66.00;;;;;;5069966;28;43440;-67
2023/03/25 07:56:49;;;;;;;0.70;0.70;;;18.20;66.10;;;;;;5065301;28;44171;-68
2023/03/25 07:59:17;;;;;;;0.90;0.90;;;18.20;66.40;;;;;;5063326;28;44473;-71
2023/03/25 08:01:45;;;;;;;1.00;1.00;;;18.20;66.20;;;;;;5065306;28;43549;-68
2023/03/25 08:04:15;;;;;;;0.80;0.80;;;18.20;66.10;;;;;;5069168;28;43584;-71
2023/03/25 08:06:43;;;;;;;0.70;0.70;;;18.30;66.20;;;;;;5067116;28;43702;-72
2023/03/25 08:09:11;;;;;;;0.90;0.90;;;18.20;66.20;;;;;;5067383;28;43422;-69
2023/03/25 08:11:40;;;;;;;0.60;0.60;;;18.20;66.30;;;;;;5069289;28;43513;-69
2023/03/25 08:14:08;;;;;;;0.80;0.80;;;18.20;66.50;;;;;;5067730;28;43531;-68
2023/03/25 08:16:36;;;;;;;0.97;0.97;;;18.30;66.40;;;;;;5059024;28;43617;-67
2023/03/25 08:19:04;;;;;;;0.87;0.87;;;18.40;66.70;;;;;;5058892;28;43411;-71
2023/03/25 08:21:32;;;;;;;0.60;0.60;;;18.50;65.60;;;;;;5064279;28;44049;-69
2023/03/25 08:24:03;;;;;;;0.80;0.80;;;18.50;65.40;;;;;;5070452;28;43444;-70
2023/03/25 08:26:32;;;;;;;0.80;0.80;;;18.50;65.40;;;;;;5060510;28;43815;-68
2023/03/25 08:29:06;;;;;;;0.90;0.90;;;18.40;65.50;;;;;;5059800;28;43477;-72
2023/03/25 08:31:37;;;;;;;0.70;0.70;;;18.50;65.60;;;;;;5065612;28;43462;-68
2023/03/25 08:34:06;;;;;;;0.77;0.77;;;18.40;65.50;;;;;;5062969;28;43458;-69
2023/03/25 08:36:38;;;;;;;0.80;0.80;;;18.40;65.60;;;;;;5067041;28;43922;-68
2023/03/25 08:39:10;;;;;;;1.10;0.63;;;18.30;65.80;;;;;;5071027;28;44094;-67
2023/03/25 08:41:41;;;;;;;0.70;0.70;;;18.30;65.90;;;;;;5067032;28;43455;-69
2023/03/25 08:44:10;;;;;;;0.80;0.80;;;18.20;66.10;;;;;;5065446;28;43460;-68
2023/03/25 08:46:38;;;;;;;0.73;0.73;;;18.30;66.00;;;;;;5065577;28;45479;-68
2023/03/25 08:49:06;;;;;;;0.77;0.77;;;18.30;66.00;;;;;;5068068;28;43924;-69
2023/03/25 08:51:34;;;;;;;0.70;0.70;;;18.30;66.50;;;;;;5071482;28;43455;-70
2023/03/25 08:54:02;;;;;;;1.73;0.73;;;18.20;66.00;;;;;;5069302;28;43893;-68
2023/03/25 08:56:30;;;;;;;2.30;1.03;;;18.20;66.30;;;;;;5069000;28;46001;-68
2023/03/25 08:58:58;;;;;;;0.87;0.87;;;18.20;66.20;;;;;;5073385;28;43376;-69
2023/03/25 09:01:28;;;;;;;0.80;0.80;;;18.20;66.10;;;;;;5070443;28;44306;-68
2023/03/25 09:03:56;;;;;;;0.90;0.90;;;18.20;66.10;;;;;;5067204;28;43507;-74
2023/03/25 09:06:24;;;;;;;1.63;0.80;;;18.20;66.10;;;;;;5064576;28;45042;-70
2023/03/25 09:08:54;;;;;;;1.53;0.70;;;18.20;66.10;;;;;;5069400;28;45055;-68
2023/03/25 09:11:22;;;;;;;1.07;1.03;;;18.10;66.40;;;;;;5068233;28;43562;-69
2023/03/25 09:14:03;;;;;;;0.67;0.67;;;18.20;66.40;;;;;;5073270;28;43358;-68
2023/03/25 09:16:33;;;;;;;0.70;0.70;;;18.30;66.00;;;;;;5079017;28;43757;-68
2023/03/25 09:19:01;;;;;;;1.00;1.00;;;18.40;66.40;;;;;;5073792;28;43457;-67
2023/03/25 09:21:29;;;;;;;0.93;0.80;;;18.40;65.30;;;;;;5070732;28;43491;-68
2023/03/25 09:23:57;;;;;;;0.80;0.80;;;18.40;65.10;;;;;;5060542;28;43501;-68
2023/03/25 09:26:25;;;;;;;1.00;1.00;;;18.40;65.60;;;;;;5065274;28;45659;-73
2023/03/25 09:28:54;;;;;;;0.70;0.70;;;18.40;65.70;;;;;;5067958;28;44119;-68
2023/03/25 09:31:22;;;;;;;1.00;1.00;;;18.40;65.50;;;;;;5070224;28;43521;-69
2023/03/25 09:33:51;;;;;;;0.80;0.80;;;18.30;65.30;;;;;;5073642;28;43403;-72
2023/03/25 09:36:20;;;;;;;0.60;0.60;;;18.30;65.60;;;;;;5063020;28;43664;-70
2023/03/25 09:38:48;;;;;;;0.80;0.80;;;18.20;65.60;;;;;;5068665;28;43489;-68
2023/03/25 09:41:40;;;;;;;1.03;1.00;;;18.20;66.20;;;;;;5070727;28;43506;-68
2023/03/25 09:44:15;;;;;;;0.60;0.60;;;18.20;66.10;;;;;;5066600;28;43439;-70
2023/03/25 09:46:44;;;;;;;0.90;0.90;;;18.20;65.70;;;;;;5067451;28;43841;-69
2023/03/25 09:49:16;;;;;;;0.70;0.70;;;18.20;65.60;;;;;;5067381;28;43406;-72
2023/03/25 09:51:44;;;;;;;1.00;1.00;;;18.20;65.90;;;;;;5064903;28;43481;-70
2023/03/25 09:54:17;;;;;;;0.90;0.90;;;18.10;66.10;;;;;;5073723;28;43610;-71
2023/03/25 09:56:47;;;;;;;0.80;0.80;;;18.10;66.40;;;;;;5062981;28;43964;-68
2023/03/25 09:59:16;;;;;;;0.90;0.90;;;18.10;66.10;;;;;;5070594;28;43392;-69
2023/03/25 10:01:46;;;;;;;0.80;0.80;;;18.10;65.90;;;;;;5066355;28;43561;-69
2023/03/25 10:04:40;;;;;;;0.70;0.70;;;18.20;66.20;;;;;;5068072;28;43790;-68
2023/03/25 10:07:13;;;;;;;1.10;1.00;;;18.10;66.40;;;;;;5063320;28;44022;-68
2023/03/25 10:09:45;;;;;;;0.80;0.80;;;18.10;66.60;;;;;;5075670;28;43723;-68
2023/03/25 10:12:26;;;;;;;1.10;1.10;;;18.10;66.50;;;;;;5082957;27;43411;-69
2023/03/25 10:15:01;;;;;;;1.00;0.90;;;18.20;66.20;;;;;;5067641;28;43720;-69
2023/03/25 10:17:33;;;;;;;0.80;0.80;;;18.40;65.90;;;;;;5062498;28;45994;-68
2023/03/25 10:20:06;;;;;;;1.10;1.10;;;18.40;65.50;;;;;;5072338;28;43513;-69
2023/03/25 10:22:36;;;;;;;0.77;0.77;;;18.40;65.40;;;;;;5064787;28;44091;-69
2023/03/25 10:25:05;;;;;;;0.80;0.80;;;18.40;65.80;;;;;;5067741;28;43952;-67
2023/03/25 10:27:34;;;;;;;0.80;0.80;;;18.30;65.70;;;;;;5068464;28;43841;-68
2023/03/25 10:30:05;;;;;;;0.87;0.87;;;18.30;65.60;;;;;;5066077;28;43413;-69
2023/03/25 10:32:37;;;;;;;1.53;0.97;;;18.30;65.60;;;;;;5071978;28;43481;-69
2023/03/25 10:35:10;;;;;;;0.90;0.90;;;18.20;65.50;;;;;;5067317;28;43397;-70
2023/03/25 10:37:41;;;;;;;0.80;0.80;;;18.20;65.80;;;;;;5071365;28;44628;-69
2023/03/25 10:40:18;;;;;;;0.90;0.90;;;18.10;66.20;;;;;;5071674;28;43486;-72
2023/03/25 10:42:56;;;;;;;1.00;1.00;;;18.20;66.20;;;;;;5069722;28;43457;-69
2023/03/25 10:45:24;;;;;;;0.80;0.80;;;18.20;66.00;;;;;;5059620;28;43383;-68
2023/03/25 10:47:52;;;;;;;0.80;0.80;;;18.20;66.10;;;;;;5066856;28;43840;-71
2023/03/25 10:50:22;;;;;;;0.80;0.80;;;18.10;66.20;;;;;;5067204;28;43478;-67
2023/03/25 10:52:51;;;;;;;0.90;0.90;;;18.10;66.40;;;;;;5079117;28;43581;-69
2023/03/25 10:55:24;;;;;;;0.80;0.80;;;18.10;66.40;;;;;;5070614;28;43450;-72
2023/03/25 10:57:52;;;;;;;0.80;0.80;;;18.10;66.10;;;;;;5065181;28;43764;-68
2023/03/25 11:00:22;;;;;;;0.70;0.70;;;18.10;66.10;;;;;;5065938;28;43525;-68
2023/03/25 11:02:53;;;;;;;0.67;0.67;;;18.10;66.40;;;;;;5064857;28;43521;-68
2023/03/25 11:05:24;;;;;;;1.00;1.00;;;18.10;66.40;;;;;;5068806;28;43481;-70
2023/03/25 11:07:54;;;;;;;0.90;0.90;;;18.10;66.50;;;;;;5069349;28;43746;-68
2023/03/25 11:10:23;;;;;;;1.10;1.10;;;18.10;66.40;;;;;;5066476;28;43505;-70
2023/03/25 11:12:51;;;;;;;0.80;0.80;;;18.10;66.20;;;;;;5065020;28;43360;-68
2023/03/25 11:15:21;;;;;;;1.00;1.00;;;18.10;66.40;;;;;;5072259;28;43718;-69
2023/03/25 11:17:56;;;;;;;0.90;0.90;;;18.10;66.40;;;;;;5076890;28;43839;-69
2023/03/25 11:20:28;;;;;;;0.90;0.90;;;18.10;66.30;;;;;;5071237;28;44341;-70
2023/03/25 11:23:01;;;;;;;0.93;0.93;;;18.10;66.50;;;;;;5068084;28;43821;-68
2023/03/25 11:25:31;;;;;;;0.93;0.90;;;18.10;65.70;;;;;;5064538;28;43542;-72
2023/03/25 11:27:59;;;;;;;1.57;0.90;;;18.20;65.50;;;;;;5077745;28;43806;-70
2023/03/25 11:30:27;;;;;;;1.67;1.10;;;18.30;65.60;;;;;;5065400;28;43480;-69
2023/03/25 11:33:01;;;;;;;1.03;1.03;;;18.40;66.10;;;;;;5069227;28;43398;-70
2023/03/25 11:35:31;;;;;;;6.17;1.10;;;18.40;65.20;;;;;;5064916;28;43502;-69
2023/03/25 11:38:00;;;;;;;1.00;1.00;;;18.40;65.40;;;;;;5062008;28;43852;-68
2023/03/25 11:40:28;;;;;;;1.00;1.00;;;18.30;65.60;;;;;;5065713;28;43485;-71
2023/03/25 11:42:57;;;;;;;1.00;0.90;;;18.30;65.50;;;;;;5070172;28;43601;-68
2023/03/25 11:45:27;;;;;;;0.73;0.73;;;18.30;65.60;;;;;;5066128;28;43654;-68
2023/03/25 11:47:58;;;;;;;1.00;1.00;;;18.30;65.90;;;;;;5064382;28;44239;-69
2023/03/25 11:50:26;;;;;;;0.83;0.83;;;18.20;66.10;;;;;;5066664;28;43414;-69
2023/03/25 11:52:59;;;;;;;0.90;0.90;;;18.20;66.20;;;;;;5065934;28;43462;-71
2023/03/25 11:55:30;;;;;;;1.00;1.00;;;18.20;66.30;;;;;;5064375;28;43606;-70
2023/03/25 11:58:00;;;;;;;1.20;1.10;;;18.20;66.30;;;;;;5069395;28;43939;-71
2023/03/25 12:00:34;;;;;;;0.80;0.80;;;18.20;66.40;;;;;;5059752;28;43458;-69
2023/03/25 12:03:03;;;;;;;0.90;0.90;;;18.20;66.40;;;;;;5061997;28;44414;-72
2023/03/25 12:05:31;;;;;;;0.90;0.87;;;18.10;66.40;;;;;;5063321;28;43502;-70
2023/03/25 12:08:16;;;;;;;0.97;0.97;;;18.10;66.60;;;;;;5064993;28;44028;-70
2023/03/25 12:10:49;;;;;;;1.07;1.07;;;18.10;66.40;;;;;;5074946;28;44232;-70
2023/03/25 12:13:22;;;;;;;0.90;0.90;;;18.20;66.40;;;;;;5066400;27;43933;-69
2023/03/25 12:15:54;;;;;;;0.83;0.83;;;18.10;66.40;;;;;;5069621;28;43575;-71
2023/03/25 12:18:34;;;;;;;0.80;0.80;;;18.10;66.70;;;;;;5078376;28;45998;-71
2023/03/25 12:21:06;;;;;;;0.93;0.93;;;18.10;66.80;;;;;;5073429;28;43415;-68
2023/03/25 12:23:39;;;;;;;1.00;1.00;;;18.20;66.80;;;;;;5070055;28;43467;-70
2023/03/25 12:26:09;;;;;;;0.80;0.80;;;18.30;66.60;;;;;;5073332;28;43973;-68
2023/03/25 12:28:52;;;;;;;1.10;1.10;;;18.40;66.20;;;;;;5076448;28;43837;-68
2023/03/25 12:31:25;;;;;;;0.80;0.80;;;18.40;65.80;;;;;;5064217;28;43485;-68
2023/03/25 12:33:59;;;;;;;1.00;1.00;;;18.40;65.70;;;;;;5062449;28;43508;-70
2023/03/25 12:36:34;;;;;;;0.83;0.83;;;18.40;66.10;;;;;;5063171;28;43387;-69
2023/03/25 12:39:10;;;;;;;0.97;0.97;;;18.40;66.10;;;;;;5063072;28;44146;-69
2023/03/25 12:41:39;;;;;;;1.50;0.90;;;18.40;65.90;;;;;;5063012;28;43462;-69
2023/03/25 12:44:08;;;;;;;0.90;0.90;;;18.30;65.90;;;;;;5059904;28;43499;-68
2023/03/25 12:46:51;;;;;;;1.40;1.30;;;18.30;66.20;;;;;;5062581;28;43555;-68
2023/03/25 12:49:36;;;;;;;0.93;0.93;;;18.30;66.50;;;;;;5060388;28;46298;-68
2023/03/25 12:52:06;;;;;;;1.03;1.03;;;18.20;66.60;;;;;;5070929;28;43458;-68
2023/03/25 12:54:44;;;;;;;1.10;1.10;;;18.20;66.40;;;;;;5073180;28;43598;-68
2023/03/25 12:57:20;;;;;;;1.43;1.13;;;18.20;66.50;;;;;;5072148;28;43752;-68
2023/03/25 13:00:13;;;;;;;0.80;0.80;;;18.20;66.60;;;;;;5064094;28;43657;-69
2023/03/25 13:03:12;;;;;;;1.10;1.10;;;18.20;66.70;;;;;;5068718;28;43546;-70
2023/03/25 13:05:41;;;;;;;1.00;1.00;;;18.20;67.00;;;;;;5075306;28;44039;-69
2023/03/25 13:08:12;;;;;;;0.70;0.70;;;18.20;66.80;;;;;;5069946;28;43494;-70